Yvonne K. — PBLX — position and weather

sailwx.info

Track history (hours):
 
Tides and Currents Weather Stations Pressure Air Temp Water Temp Dewpoint Dewpoint Depression Visibility Wind Speed Wind Dir Waves Ship Positions

Yvonne K.

Last reported at 2014-Oct-24 18:05 UTC. Time now 2014-Oct-25 07:07 UTC.
Position N 39°47' E 008°16'.

Length 90 m; draft 3.4 m.

Type: Cargo ship. MMSI: 244948000.

Date/timePositionNaut miles runAvg speedWind from/ knotsBaromVisibWave heightAir tempDewpointWater temp
2014-Oct-24 18:05N 39°47' E 008°16'  
2014-Oct-22 12:06N 39°49' E 008°19'3 4.3
2014-Oct-22 11:26N 39°48' E 008°16'317 9.0
2014-Oct-21 00:11N 40°03' E 001°23'5010.1
2014-Oct-20 19:16N 39°59' E 000°19'13 0.5
2014-Oct-19 15:12N 39°58' E 000°02'0 0.0
2014-Oct-18 12:11N 39°58' E 000°02'2 0.3
2014-Oct-18 06:25N 39°59' E 000°04'0 0.0
2014-Oct-18 04:30N 39°59' E 000°04'0 0.0
2014-Oct-18 03:33N 39°59' E 000°04'0 0.0
2014-Oct-17 19:14N 39°58' E 000°04'137 7.7
2014-Oct-17 01:33N 37°43' W 000°22'8 8.3
2014-Oct-17 00:33N 37°36' W 000°28'16 8.1
2014-Oct-16 22:33N 37°25' W 000°43'8 8.2
2014-Oct-16 21:33N 37°19' W 000°50'9 8.6
2014-Oct-16 20:33N 37°14' W 000°59'10 8.5
2014-Oct-16 19:24N 37°07' W 001°08'210 9.2
2014-Oct-15 20:33N 35°56' W 005°14'4 4.3
2014-Oct-15 19:32N 35°54' W 005°18'0 0.0
2014-Oct-15 18:32N 35°54' W 005°18'0 0.0
2014-Oct-15 17:32N 35°54' W 005°18'0 0.0
2014-Oct-15 16:33N 35°54' W 005°18'6 5.6
2014-Oct-15 15:33N 35°57' W 005°24'  
Track history (hours):
 
Tides and Currents Weather Stations Pressure Air Temp Water Temp Dewpoint Dewpoint Depression Visibility Wind Speed Wind Dir Waves Ship Positions

Yvonne K.

Last reported at 2014-Oct-24 18:05 UTC. Time now 2014-Oct-25 07:07 UTC.
Position N 39°47' E 008°16'.

Length 90 m; draft 3.4 m.

Type: Cargo ship. MMSI: 244948000.

Date/timePositionNaut miles runAvg speedWind from/ knotsBaromVisibWave heightAir tempDewpointWater temp
2014-Oct-24 18:05N 39°47' E 008°16'  
2014-Oct-22 12:06N 39°49' E 008°19'3 4.3
2014-Oct-22 11:26N 39°48' E 008°16'317 9.0
2014-Oct-21 00:11N 40°03' E 001°23'5010.1
2014-Oct-20 19:16N 39°59' E 000°19'13 0.5
2014-Oct-19 15:12N 39°58' E 000°02'0 0.0
2014-Oct-18 12:11N 39°58' E 000°02'2 0.3
2014-Oct-18 06:25N 39°59' E 000°04'0 0.0
2014-Oct-18 04:30N 39°59' E 000°04'0 0.0
2014-Oct-18 03:33N 39°59' E 000°04'0 0.0
2014-Oct-17 19:14N 39°58' E 000°04'137 7.7
2014-Oct-17 01:33N 37°43' W 000°22'8 8.3
2014-Oct-17 00:33N 37°36' W 000°28'16 8.1
2014-Oct-16 22:33N 37°25' W 000°43'8 8.2
2014-Oct-16 21:33N 37°19' W 000°50'9 8.6
2014-Oct-16 20:33N 37°14' W 000°59'10 8.5
2014-Oct-16 19:24N 37°07' W 001°08'210 9.2
2014-Oct-15 20:33N 35°56' W 005°14'4 4.3
2014-Oct-15 19:32N 35°54' W 005°18'0 0.0
2014-Oct-15 18:32N 35°54' W 005°18'0 0.0
2014-Oct-15 17:32N 35°54' W 005°18'0 0.0
2014-Oct-15 16:33N 35°54' W 005°18'6 5.6
2014-Oct-15 15:33N 35°57' W 005°24'  

Dump ship's entire track history